sensor_id;sensor_type;location;lat;lon;timestamp;P1;durP1;ratioP1;P2;durP2;ratioP2
44222;SDS011;29895;48.804;9.386;2023-08-06T00:02:21;8.55;;;5.63;;
44222;SDS011;29895;48.804;9.386;2023-08-06T00:04:46;7.32;;;6.15;;
44222;SDS011;29895;48.804;9.386;2023-08-06T00:07:12;9.32;;;6.35;;
44222;SDS011;29895;48.804;9.386;2023-08-06T00:09:38;7.40;;;5.65;;
44222;SDS011;29895;48.804;9.386;2023-08-06T00:12:03;8.30;;;5.95;;
44222;SDS011;29895;48.804;9.386;2023-08-06T00:14:29;6.15;;;5.38;;
44222;SDS011;29895;48.804;9.386;2023-08-06T00:16:55;8.00;;;5.80;;
44222;SDS011;29895;48.804;9.386;2023-08-06T00:19:21;8.48;;;5.80;;
44222;SDS011;29895;48.804;9.386;2023-08-06T00:21:46;10.77;;;6.50;;
44222;SDS011;29895;48.804;9.386;2023-08-06T00:24:12;6.80;;;5.53;;
44222;SDS011;29895;48.804;9.386;2023-08-06T00:26:38;7.80;;;5.40;;
44222;SDS011;29895;48.804;9.386;2023-08-06T00:29:04;7.22;;;5.57;;
44222;SDS011;29895;48.804;9.386;2023-08-06T00:31:30;9.23;;;5.82;;
44222;SDS011;29895;48.804;9.386;2023-08-06T00:33:55;7.07;;;5.75;;
44222;SDS011;29895;48.804;9.386;2023-08-06T00:36:21;8.55;;;6.10;;
44222;SDS011;29895;48.804;9.386;2023-08-06T00:38:47;8.73;;;6.18;;
44222;SDS011;29895;48.804;9.386;2023-08-06T00:41:12;11.48;;;7.05;;
44222;SDS011;29895;48.804;9.386;2023-08-06T00:43:38;7.40;;;5.72;;
44222;SDS011;29895;48.804;9.386;2023-08-06T00:46:04;9.00;;;6.13;;
44222;SDS011;29895;48.804;9.386;2023-08-06T00:48:31;8.68;;;6.53;;
44222;SDS011;29895;48.804;9.386;2023-08-06T00:50:56;10.27;;;6.95;;
44222;SDS011;29895;48.804;9.386;2023-08-06T00:53:22;10.40;;;6.55;;
44222;SDS011;29895;48.804;9.386;2023-08-06T00:55:49;9.23;;;6.95;;
44222;SDS011;29895;48.804;9.386;2023-08-06T00:58:15;10.15;;;7.15;;
44222;SDS011;29895;48.804;9.386;2023-08-06T01:00:41;10.88;;;7.50;;
44222;SDS011;29895;48.804;9.386;2023-08-06T01:03:07;10.75;;;8.07;;
44222;SDS011;29895;48.804;9.386;2023-08-06T01:05:33;12.23;;;7.20;;
44222;SDS011;29895;48.804;9.386;2023-08-06T01:08:08;13.65;;;6.90;;
44222;SDS011;29895;48.804;9.386;2023-08-06T01:16:14;13.45;;;7.25;;
44222;SDS011;29895;48.804;9.386;2023-08-06T01:18:42;10.45;;;7.30;;
44222;SDS011;29895;48.804;9.386;2023-08-06T01:21:11;8.90;;;7.03;;
44222;SDS011;29895;48.804;9.386;2023-08-06T01:23:40;11.32;;;7.38;;
44222;SDS011;29895;48.804;9.386;2023-08-06T01:28:56;9.88;;;6.95;;
44222;SDS011;29895;48.804;9.386;2023-08-06T01:31:32;9.00;;;7.25;;
44222;SDS011;29895;48.804;9.386;2023-08-06T01:34:01;11.00;;;8.38;;
44222;SDS011;29895;48.804;9.386;2023-08-06T01:36:29;10.43;;;7.75;;
44222;SDS011;29895;48.804;9.386;2023-08-06T01:38:56;11.27;;;8.40;;
44222;SDS011;29895;48.804;9.386;2023-08-06T01:41:22;11.02;;;8.40;;
44222;SDS011;29895;48.804;9.386;2023-08-06T01:43:48;12.98;;;8.45;;
44222;SDS011;29895;48.804;9.386;2023-08-06T01:46:13;16.00;;;9.05;;
44222;SDS011;29895;48.804;9.386;2023-08-06T01:48:39;14.68;;;8.52;;
44222;SDS011;29895;48.804;9.386;2023-08-06T01:51:05;11.73;;;8.77;;
44222;SDS011;29895;48.804;9.386;2023-08-06T01:53:31;13.48;;;8.23;;
44222;SDS011;29895;48.804;9.386;2023-08-06T01:55:57;15.43;;;9.10;;
44222;SDS011;29895;48.804;9.386;2023-08-06T01:58:23;12.27;;;8.35;;
44222;SDS011;29895;48.804;9.386;2023-08-06T02:00:49;11.80;;;7.60;;
44222;SDS011;29895;48.804;9.386;2023-08-06T02:03:14;9.63;;;7.95;;
44222;SDS011;29895;48.804;9.386;2023-08-06T02:05:40;10.35;;;7.78;;
44222;SDS011;29895;48.804;9.386;2023-08-06T02:08:06;10.85;;;7.85;;
44222;SDS011;29895;48.804;9.386;2023-08-06T02:10:32;9.60;;;7.47;;
44222;SDS011;29895;48.804;9.386;2023-08-06T02:12:58;9.80;;;7.82;;
44222;SDS011;29895;48.804;9.386;2023-08-06T02:15:24;11.00;;;7.45;;
44222;SDS011;29895;48.804;9.386;2023-08-06T02:17:50;10.45;;;7.60;;
44222;SDS011;29895;48.804;9.386;2023-08-06T02:20:15;9.40;;;6.82;;
44222;SDS011;29895;48.804;9.386;2023-08-06T02:22:41;8.93;;;6.35;;
44222;SDS011;29895;48.804;9.386;2023-08-06T02:25:07;6.97;;;5.25;;
44222;SDS011;29895;48.804;9.386;2023-08-06T02:27:33;6.07;;;4.90;;
44222;SDS011;29895;48.804;9.386;2023-08-06T02:29:58;13.23;;;5.60;;
44222;SDS011;29895;48.804;9.386;2023-08-06T02:32:24;7.20;;;4.43;;
44222;SDS011;29895;48.804;9.386;2023-08-06T02:34:49;6.15;;;4.13;;
44222;SDS011;29895;48.804;9.386;2023-08-06T02:37:15;6.68;;;4.28;;
44222;SDS011;29895;48.804;9.386;2023-08-06T02:39:41;6.85;;;3.95;;
44222;SDS011;29895;48.804;9.386;2023-08-06T02:42:08;6.82;;;4.32;;
44222;SDS011;29895;48.804;9.386;2023-08-06T02:44:34;8.85;;;3.92;;
44222;SDS011;29895;48.804;9.386;2023-08-06T02:47:00;5.80;;;3.90;;
44222;SDS011;29895;48.804;9.386;2023-08-06T02:49:26;5.32;;;3.42;;
44222;SDS011;29895;48.804;9.386;2023-08-06T02:51:52;4.82;;;3.58;;
44222;SDS011;29895;48.804;9.386;2023-08-06T02:54:18;4.80;;;3.55;;
44222;SDS011;29895;48.804;9.386;2023-08-06T02:56:44;4.95;;;3.33;;
44222;SDS011;29895;48.804;9.386;2023-08-06T02:59:11;7.13;;;3.35;;
44222;SDS011;29895;48.804;9.386;2023-08-06T03:01:37;6.70;;;3.90;;
44222;SDS011;29895;48.804;9.386;2023-08-06T03:04:03;4.03;;;3.15;;
44222;SDS011;29895;48.804;9.386;2023-08-06T03:06:29;3.42;;;2.83;;
44222;SDS011;29895;48.804;9.386;2023-08-06T03:08:54;5.72;;;3.33;;
44222;SDS011;29895;48.804;9.386;2023-08-06T03:11:20;7.65;;;3.72;;
44222;SDS011;29895;48.804;9.386;2023-08-06T03:13:46;4.70;;;3.55;;
44222;SDS011;29895;48.804;9.386;2023-08-06T03:16:13;6.15;;;3.60;;
44222;SDS011;29895;48.804;9.386;2023-08-06T03:18:39;7.40;;;3.53;;
44222;SDS011;29895;48.804;9.386;2023-08-06T03:21:05;8.35;;;3.58;;
44222;SDS011;29895;48.804;9.386;2023-08-06T03:23:30;7.18;;;3.63;;
44222;SDS011;29895;48.804;9.386;2023-08-06T03:25:56;6.30;;;4.07;;
44222;SDS011;29895;48.804;9.386;2023-08-06T03:28:26;8.15;;;3.45;;
44222;SDS011;29895;48.804;9.386;2023-08-06T03:31:01;4.95;;;3.50;;
44222;SDS011;29895;48.804;9.386;2023-08-06T03:33:28;4.65;;;2.60;;
44222;SDS011;29895;48.804;9.386;2023-08-06T03:35:54;5.07;;;3.10;;
44222;SDS011;29895;48.804;9.386;2023-08-06T03:38:19;5.00;;;2.88;;
44222;SDS011;29895;48.804;9.386;2023-08-06T03:40:48;5.70;;;2.95;;
44222;SDS011;29895;48.804;9.386;2023-08-06T03:43:14;4.38;;;2.80;;
44222;SDS011;29895;48.804;9.386;2023-08-06T03:45:40;9.57;;;4.03;;
44222;SDS011;29895;48.804;9.386;2023-08-06T03:48:06;5.18;;;2.70;;
44222;SDS011;29895;48.804;9.386;2023-08-06T03:50:33;6.38;;;2.83;;
44222;SDS011;29895;48.804;9.386;2023-08-06T03:52:58;7.13;;;2.60;;
44222;SDS011;29895;48.804;9.386;2023-08-06T03:55:24;9.02;;;2.92;;
44222;SDS011;29895;48.804;9.386;2023-08-06T03:57:50;8.23;;;2.80;;
44222;SDS011;29895;48.804;9.386;2023-08-06T04:00:15;5.97;;;2.75;;
44222;SDS011;29895;48.804;9.386;2023-08-06T04:02:41;7.82;;;2.95;;
44222;SDS011;29895;48.804;9.386;2023-08-06T04:05:07;4.68;;;2.63;;
44222;SDS011;29895;48.804;9.386;2023-08-06T04:07:33;4.45;;;2.63;;
44222;SDS011;29895;48.804;9.386;2023-08-06T04:10:00;5.43;;;2.72;;
44222;SDS011;29895;48.804;9.386;2023-08-06T04:12:28;4.32;;;2.83;;
44222;SDS011;29895;48.804;9.386;2023-08-06T04:14:53;3.80;;;2.55;;
44222;SDS011;29895;48.804;9.386;2023-08-06T04:17:20;8.55;;;2.50;;
44222;SDS011;29895;48.804;9.386;2023-08-06T04:19:50;7.45;;;3.03;;
44222;SDS011;29895;48.804;9.386;2023-08-06T04:22:16;5.20;;;2.85;;
44222;SDS011;29895;48.804;9.386;2023-08-06T04:24:43;6.22;;;3.08;;
44222;SDS011;29895;48.804;9.386;2023-08-06T04:27:09;5.72;;;3.00;;
44222;SDS011;29895;48.804;9.386;2023-08-06T04:29:35;5.53;;;3.17;;
44222;SDS011;29895;48.804;9.386;2023-08-06T04:32:01;4.55;;;3.45;;
44222;SDS011;29895;48.804;9.386;2023-08-06T04:34:27;7.43;;;3.47;;
44222;SDS011;29895;48.804;9.386;2023-08-06T04:36:52;7.00;;;3.63;;
44222;SDS011;29895;48.804;9.386;2023-08-06T04:39:18;6.65;;;3.50;;
44222;SDS011;29895;48.804;9.386;2023-08-06T04:41:43;7.22;;;2.92;;
44222;SDS011;29895;48.804;9.386;2023-08-06T04:44:09;7.57;;;3.78;;
44222;SDS011;29895;48.804;9.386;2023-08-06T04:46:35;4.60;;;3.10;;
44222;SDS011;29895;48.804;9.386;2023-08-06T04:49:00;8.10;;;3.28;;
44222;SDS011;29895;48.804;9.386;2023-08-06T04:51:26;9.00;;;3.72;;
44222;SDS011;29895;48.804;9.386;2023-08-06T04:53:52;6.82;;;4.03;;
44222;SDS011;29895;48.804;9.386;2023-08-06T04:56:17;7.70;;;3.40;;
44222;SDS011;29895;48.804;9.386;2023-08-06T04:58:43;5.63;;;2.80;;
44222;SDS011;29895;48.804;9.386;2023-08-06T05:01:09;4.47;;;3.00;;
44222;SDS011;29895;48.804;9.386;2023-08-06T05:03:35;4.93;;;3.08;;
44222;SDS011;29895;48.804;9.386;2023-08-06T05:06:00;7.35;;;2.90;;
44222;SDS011;29895;48.804;9.386;2023-08-06T05:08:26;11.00;;;3.03;;
44222;SDS011;29895;48.804;9.386;2023-08-06T05:10:52;6.65;;;3.33;;
44222;SDS011;29895;48.804;9.386;2023-08-06T05:13:17;6.18;;;2.95;;
44222;SDS011;29895;48.804;9.386;2023-08-06T05:15:43;6.22;;;2.65;;
44222;SDS011;29895;48.804;9.386;2023-08-06T05:18:11;11.13;;;3.00;;
44222;SDS011;29895;48.804;9.386;2023-08-06T05:20:40;6.55;;;2.60;;
44222;SDS011;29895;48.804;9.386;2023-08-06T05:23:07;4.10;;;2.10;;
44222;SDS011;29895;48.804;9.386;2023-08-06T05:25:36;6.20;;;2.60;;
44222;SDS011;29895;48.804;9.386;2023-08-06T05:28:03;5.07;;;2.38;;
44222;SDS011;29895;48.804;9.386;2023-08-06T05:30:29;4.47;;;1.88;;
44222;SDS011;29895;48.804;9.386;2023-08-06T05:32:55;5.07;;;1.83;;
44222;SDS011;29895;48.804;9.386;2023-08-06T05:35:21;3.65;;;1.55;;
44222;SDS011;29895;48.804;9.386;2023-08-06T05:37:47;3.97;;;1.58;;
44222;SDS011;29895;48.804;9.386;2023-08-06T05:40:14;5.75;;;1.63;;
44222;SDS011;29895;48.804;9.386;2023-08-06T05:42:40;4.63;;;1.70;;
44222;SDS011;29895;48.804;9.386;2023-08-06T05:45:06;4.93;;;1.30;;
44222;SDS011;29895;48.804;9.386;2023-08-06T05:47:32;3.92;;;1.38;;
44222;SDS011;29895;48.804;9.386;2023-08-06T05:49:58;2.80;;;1.30;;
44222;SDS011;29895;48.804;9.386;2023-08-06T05:52:23;3.35;;;1.50;;
44222;SDS011;29895;48.804;9.386;2023-08-06T05:54:49;4.25;;;1.33;;
44222;SDS011;29895;48.804;9.386;2023-08-06T05:57:15;5.32;;;1.58;;
44222;SDS011;29895;48.804;9.386;2023-08-06T05:59:41;2.47;;;1.40;;
44222;SDS011;29895;48.804;9.386;2023-08-06T06:02:07;4.45;;;1.33;;
44222;SDS011;29895;48.804;9.386;2023-08-06T06:04:32;5.20;;;1.73;;
44222;SDS011;29895;48.804;9.386;2023-08-06T06:06:58;3.92;;;1.52;;
44222;SDS011;29895;48.804;9.386;2023-08-06T06:09:24;5.22;;;1.30;;
44222;SDS011;29895;48.804;9.386;2023-08-06T06:11:50;4.68;;;1.33;;
44222;SDS011;29895;48.804;9.386;2023-08-06T06:14:18;3.90;;;1.55;;
44222;SDS011;29895;48.804;9.386;2023-08-06T06:16:44;3.13;;;1.20;;
44222;SDS011;29895;48.804;9.386;2023-08-06T06:19:11;4.13;;;1.38;;
44222;SDS011;29895;48.804;9.386;2023-08-06T06:21:37;4.13;;;1.45;;
44222;SDS011;29895;48.804;9.386;2023-08-06T06:24:04;6.57;;;1.30;;
44222;SDS011;29895;48.804;9.386;2023-08-06T06:26:30;2.75;;;0.75;;
44222;SDS011;29895;48.804;9.386;2023-08-06T06:28:56;4.32;;;1.05;;
44222;SDS011;29895;48.804;9.386;2023-08-06T06:31:21;2.47;;;0.68;;
44222;SDS011;29895;48.804;9.386;2023-08-06T06:33:47;1.95;;;0.73;;
44222;SDS011;29895;48.804;9.386;2023-08-06T06:36:13;2.15;;;0.90;;
44222;SDS011;29895;48.804;9.386;2023-08-06T06:38:38;2.50;;;0.65;;
44222;SDS011;29895;48.804;9.386;2023-08-06T06:41:04;5.20;;;1.10;;
44222;SDS011;29895;48.804;9.386;2023-08-06T06:43:30;5.60;;;1.00;;
44222;SDS011;29895;48.804;9.386;2023-08-06T06:45:56;3.38;;;1.23;;
44222;SDS011;29895;48.804;9.386;2023-08-06T06:48:25;3.90;;;1.05;;
44222;SDS011;29895;48.804;9.386;2023-08-06T06:50:57;3.70;;;1.00;;
44222;SDS011;29895;48.804;9.386;2023-08-06T06:53:23;3.20;;;1.00;;
44222;SDS011;29895;48.804;9.386;2023-08-06T06:55:56;3.70;;;0.77;;
44222;SDS011;29895;48.804;9.386;2023-08-06T06:58:26;5.28;;;1.08;;
44222;SDS011;29895;48.804;9.386;2023-08-06T07:00:54;6.68;;;1.27;;
44222;SDS011;29895;48.804;9.386;2023-08-06T07:03:20;2.40;;;0.73;;
44222;SDS011;29895;48.804;9.386;2023-08-06T07:05:49;4.65;;;0.88;;
44222;SDS011;29895;48.804;9.386;2023-08-06T07:08:15;3.30;;;0.88;;
44222;SDS011;29895;48.804;9.386;2023-08-06T07:10:45;1.73;;;0.63;;
44222;SDS011;29895;48.804;9.386;2023-08-06T07:13:11;3.60;;;0.45;;
44222;SDS011;29895;48.804;9.386;2023-08-06T07:15:40;3.72;;;0.95;;
44222;SDS011;29895;48.804;9.386;2023-08-06T07:18:08;3.30;;;0.88;;
44222;SDS011;29895;48.804;9.386;2023-08-06T07:20:35;3.05;;;0.93;;
44222;SDS011;29895;48.804;9.386;2023-08-06T07:23:08;1.95;;;0.70;;
44222;SDS011;29895;48.804;9.386;2023-08-06T07:25:36;2.47;;;0.95;;
44222;SDS011;29895;48.804;9.386;2023-08-06T07:28:05;2.50;;;0.50;;
44222;SDS011;29895;48.804;9.386;2023-08-06T07:30:33;1.75;;;0.65;;
44222;SDS011;29895;48.804;9.386;2023-08-06T07:33:10;1.60;;;0.90;;
44222;SDS011;29895;48.804;9.386;2023-08-06T07:35:42;1.65;;;0.52;;
44222;SDS011;29895;48.804;9.386;2023-08-06T07:38:08;5.53;;;0.50;;
44222;SDS011;29895;48.804;9.386;2023-08-06T07:40:39;2.72;;;0.50;;
44222;SDS011;29895;48.804;9.386;2023-08-06T07:43:05;3.80;;;0.57;;
44222;SDS011;29895;48.804;9.386;2023-08-06T07:45:34;1.77;;;0.40;;
44222;SDS011;29895;48.804;9.386;2023-08-06T07:48:03;1.83;;;0.68;;
44222;SDS011;29895;48.804;9.386;2023-08-06T07:50:29;1.48;;;0.75;;
44222;SDS011;29895;48.804;9.386;2023-08-06T07:52:58;3.78;;;0.32;;
44222;SDS011;29895;48.804;9.386;2023-08-06T07:55:23;2.00;;;0.43;;
44222;SDS011;29895;48.804;9.386;2023-08-06T07:57:50;1.17;;;0.40;;
44222;SDS011;29895;48.804;9.386;2023-08-06T08:00:15;1.25;;;0.55;;
44222;SDS011;29895;48.804;9.386;2023-08-06T08:02:41;0.75;;;0.32;;
44222;SDS011;29895;48.804;9.386;2023-08-06T08:05:07;0.32;;;0.30;;
44222;SDS011;29895;48.804;9.386;2023-08-06T08:07:33;1.27;;;0.45;;
44222;SDS011;29895;48.804;9.386;2023-08-06T08:09:59;1.52;;;0.30;;
44222;SDS011;29895;48.804;9.386;2023-08-06T08:12:24;0.60;;;0.10;;
44222;SDS011;29895;48.804;9.386;2023-08-06T08:14:50;0.80;;;0.20;;
44222;SDS011;29895;48.804;9.386;2023-08-06T08:17:16;0.55;;;0.17;;
44222;SDS011;29895;48.804;9.386;2023-08-06T08:19:41;1.38;;;0.22;;
44222;SDS011;29895;48.804;9.386;2023-08-06T08:22:07;2.53;;;0.20;;
44222;SDS011;29895;48.804;9.386;2023-08-06T08:24:32;0.45;;;0.10;;
44222;SDS011;29895;48.804;9.386;2023-08-06T08:26:58;0.30;;;0.15;;
44222;SDS011;29895;48.804;9.386;2023-08-06T08:29:24;2.15;;;0.17;;
44222;SDS011;29895;48.804;9.386;2023-08-06T08:31:49;1.48;;;0.20;;
44222;SDS011;29895;48.804;9.386;2023-08-06T08:34:16;0.40;;;0.20;;
44222;SDS011;29895;48.804;9.386;2023-08-06T08:36:41;1.10;;;0.10;;
44222;SDS011;29895;48.804;9.386;2023-08-06T08:39:08;0.60;;;0.20;;
44222;SDS011;29895;48.804;9.386;2023-08-06T08:41:33;0.10;;;0.10;;
44222;SDS011;29895;48.804;9.386;2023-08-06T08:44:02;0.75;;;0.00;;
44222;SDS011;29895;48.804;9.386;2023-08-06T08:46:33;0.22;;;0.10;;
44222;SDS011;29895;48.804;9.386;2023-08-06T08:49:01;1.20;;;0.20;;
44222;SDS011;29895;48.804;9.386;2023-08-06T08:51:27;1.95;;;0.10;;
44222;SDS011;29895;48.804;9.386;2023-08-06T08:53:54;0.77;;;0.10;;
44222;SDS011;29895;48.804;9.386;2023-08-06T08:56:24;0.15;;;0.10;;
44222;SDS011;29895;48.804;9.386;2023-08-06T08:58:50;0.73;;;0.20;;
44222;SDS011;29895;48.804;9.386;2023-08-06T09:01:18;1.33;;;0.17;;
44222;SDS011;29895;48.804;9.386;2023-08-06T09:03:45;0.52;;;0.20;;
44222;SDS011;29895;48.804;9.386;2023-08-06T09:06:12;0.40;;;0.10;;
44222;SDS011;29895;48.804;9.386;2023-08-06T09:08:43;0.32;;;0.10;;
44222;SDS011;29895;48.804;9.386;2023-08-06T09:11:32;0.30;;;0.17;;
44222;SDS011;29895;48.804;9.386;2023-08-06T09:14:05;0.90;;;0.10;;
44222;SDS011;29895;48.804;9.386;2023-08-06T09:16:34;0.52;;;0.10;;
44222;SDS011;29895;48.804;9.386;2023-08-06T09:19:07;1.50;;;0.20;;
44222;SDS011;29895;48.804;9.386;2023-08-06T09:21:35;0.57;;;0.20;;
44222;SDS011;29895;48.804;9.386;2023-08-06T09:24:06;0.10;;;0.10;;
44222;SDS011;29895;48.804;9.386;2023-08-06T09:26:36;0.52;;;0.30;;
44222;SDS011;29895;48.804;9.386;2023-08-06T09:29:04;0.95;;;0.20;;
44222;SDS011;29895;48.804;9.386;2023-08-06T09:31:41;0.50;;;0.10;;
44222;SDS011;29895;48.804;9.386;2023-08-06T09:34:11;1.27;;;0.10;;
44222;SDS011;29895;48.804;9.386;2023-08-06T09:36:48;0.55;;;0.20;;
44222;SDS011;29895;48.804;9.386;2023-08-06T09:39:26;0.20;;;0.10;;
44222;SDS011;29895;48.804;9.386;2023-08-06T09:41:55;0.05;;;0.00;;
44222;SDS011;29895;48.804;9.386;2023-08-06T09:44:26;0.30;;;0.20;;
44222;SDS011;29895;48.804;9.386;2023-08-06T09:46:56;0.10;;;0.10;;
44222;SDS011;29895;48.804;9.386;2023-08-06T09:49:26;0.10;;;0.10;;
44222;SDS011;29895;48.804;9.386;2023-08-06T09:51:59;0.90;;;0.00;;
44222;SDS011;29895;48.804;9.386;2023-08-06T09:54:25;0.20;;;0.10;;
44222;SDS011;29895;48.804;9.386;2023-08-06T09:56:55;0.35;;;0.10;;
44222;SDS011;29895;48.804;9.386;2023-08-06T09:59:21;1.25;;;0.20;;
44222;SDS011;29895;48.804;9.386;2023-08-06T10:01:50;0.30;;;0.10;;
44222;SDS011;29895;48.804;9.386;2023-08-06T10:04:16;2.92;;;0.20;;
44222;SDS011;29895;48.804;9.386;2023-08-06T10:06:43;0.35;;;0.10;;
44222;SDS011;29895;48.804;9.386;2023-08-06T10:09:11;0.13;;;0.03;;
44222;SDS011;29895;48.804;9.386;2023-08-06T10:11:37;0.80;;;0.10;;
44222;SDS011;29895;48.804;9.386;2023-08-06T10:14:06;0.03;;;0.00;;
44222;SDS011;29895;48.804;9.386;2023-08-06T10:16:53;1.77;;;0.20;;
44222;SDS011;29895;48.804;9.386;2023-08-06T10:19:22;0.77;;;0.20;;
44222;SDS011;29895;48.804;9.386;2023-08-06T10:22:08;0.82;;;0.28;;
44222;SDS011;29895;48.804;9.386;2023-08-06T10:24:59;0.30;;;0.15;;
44222;SDS011;29895;48.804;9.386;2023-08-06T10:27:29;0.77;;;0.25;;
44222;SDS011;29895;48.804;9.386;2023-08-06T10:32:58;0.60;;;0.15;;
44222;SDS011;29895;48.804;9.386;2023-08-06T10:38:19;0.45;;;0.10;;
44222;SDS011;29895;48.804;9.386;2023-08-06T10:43:32;0.30;;;0.20;;
44222;SDS011;29895;48.804;9.386;2023-08-06T10:45:59;0.30;;;0.20;;
44222;SDS011;29895;48.804;9.386;2023-08-06T10:48:35;0.10;;;0.10;;
44222;SDS011;29895;48.804;9.386;2023-08-06T10:51:02;0.45;;;0.10;;
44222;SDS011;29895;48.804;9.386;2023-08-06T10:53:29;0.10;;;0.10;;
44222;SDS011;29895;48.804;9.386;2023-08-06T10:55:55;0.20;;;0.20;;
44222;SDS011;29895;48.804;9.386;2023-08-06T10:58:21;0.15;;;0.10;;
44222;SDS011;29895;48.804;9.386;2023-08-06T11:00:46;2.75;;;0.10;;
44222;SDS011;29895;48.804;9.386;2023-08-06T11:03:12;0.45;;;0.20;;
44222;SDS011;29895;48.804;9.386;2023-08-06T11:05:38;0.82;;;0.08;;
44222;SDS011;29895;48.804;9.386;2023-08-06T11:08:04;0.70;;;0.20;;
44222;SDS011;29895;48.804;9.386;2023-08-06T11:10:32;0.17;;;0.10;;
44222;SDS011;29895;48.804;9.386;2023-08-06T11:13:01;1.02;;;0.28;;
44222;SDS011;29895;48.804;9.386;2023-08-06T11:15:27;1.48;;;0.20;;
44222;SDS011;29895;48.804;9.386;2023-08-06T11:17:54;1.58;;;0.20;;
44222;SDS011;29895;48.804;9.386;2023-08-06T11:20:20;3.85;;;0.60;;
44222;SDS011;29895;48.804;9.386;2023-08-06T11:22:47;1.40;;;0.40;;
44222;SDS011;29895;48.804;9.386;2023-08-06T11:25:13;2.38;;;0.95;;
44222;SDS011;29895;48.804;9.386;2023-08-06T11:27:38;0.77;;;0.40;;
44222;SDS011;29895;48.804;9.386;2023-08-06T11:30:04;0.40;;;0.20;;
44222;SDS011;29895;48.804;9.386;2023-08-06T11:32:30;1.33;;;0.50;;
44222;SDS011;29895;48.804;9.386;2023-08-06T11:34:57;0.70;;;0.40;;
44222;SDS011;29895;48.804;9.386;2023-08-06T11:37:23;1.27;;;0.40;;
44222;SDS011;29895;48.804;9.386;2023-08-06T11:39:50;1.45;;;0.55;;
44222;SDS011;29895;48.804;9.386;2023-08-06T11:42:16;1.38;;;0.60;;
44222;SDS011;29895;48.804;9.386;2023-08-06T11:44:42;1.55;;;0.40;;
44222;SDS011;29895;48.804;9.386;2023-08-06T11:47:12;1.42;;;0.52;;
44222;SDS011;29895;48.804;9.386;2023-08-06T11:49:40;1.17;;;0.60;;
44222;SDS011;29895;48.804;9.386;2023-08-06T11:54:38;1.17;;;0.70;;
44222;SDS011;29895;48.804;9.386;2023-08-06T11:57:07;2.05;;;0.60;;
44222;SDS011;29895;48.804;9.386;2023-08-06T11:59:33;2.88;;;0.85;;
44222;SDS011;29895;48.804;9.386;2023-08-06T12:02:03;3.25;;;0.98;;
44222;SDS011;29895;48.804;9.386;2023-08-06T12:04:50;2.33;;;0.88;;
44222;SDS011;29895;48.804;9.386;2023-08-06T12:07:27;1.08;;;0.90;;
44222;SDS011;29895;48.804;9.386;2023-08-06T12:10:01;2.60;;;1.05;;
44222;SDS011;29895;48.804;9.386;2023-08-06T12:12:27;5.55;;;1.10;;
44222;SDS011;29895;48.804;9.386;2023-08-06T12:14:53;1.40;;;1.08;;
44222;SDS011;29895;48.804;9.386;2023-08-06T12:17:19;3.30;;;1.05;;
44222;SDS011;29895;48.804;9.386;2023-08-06T12:19:45;3.58;;;1.20;;
44222;SDS011;29895;48.804;9.386;2023-08-06T12:22:12;3.17;;;1.27;;
44222;SDS011;29895;48.804;9.386;2023-08-06T12:24:39;3.85;;;1.30;;
44222;SDS011;29895;48.804;9.386;2023-08-06T12:27:09;8.55;;;1.33;;
44222;SDS011;29895;48.804;9.386;2023-08-06T12:29:34;4.03;;;1.25;;
44222;SDS011;29895;48.804;9.386;2023-08-06T12:32:01;3.00;;;1.17;;
44222;SDS011;29895;48.804;9.386;2023-08-06T12:34:27;4.18;;;1.58;;
44222;SDS011;29895;48.804;9.386;2023-08-06T12:36:52;3.25;;;1.73;;
44222;SDS011;29895;48.804;9.386;2023-08-06T12:39:18;4.93;;;1.38;;
44222;SDS011;29895;48.804;9.386;2023-08-06T12:41:43;3.10;;;1.60;;
44222;SDS011;29895;48.804;9.386;2023-08-06T12:44:11;5.95;;;1.77;;
44222;SDS011;29895;48.804;9.386;2023-08-06T12:46:37;3.45;;;1.45;;
44222;SDS011;29895;48.804;9.386;2023-08-06T12:49:02;6.75;;;1.63;;
44222;SDS011;29895;48.804;9.386;2023-08-06T12:51:28;5.15;;;1.48;;
44222;SDS011;29895;48.804;9.386;2023-08-06T12:53:54;4.18;;;1.67;;
44222;SDS011;29895;48.804;9.386;2023-08-06T12:56:26;2.60;;;1.30;;
44222;SDS011;29895;48.804;9.386;2023-08-06T12:58:51;2.70;;;1.45;;
44222;SDS011;29895;48.804;9.386;2023-08-06T13:01:17;3.80;;;1.38;;
44222;SDS011;29895;48.804;9.386;2023-08-06T13:03:42;2.40;;;1.10;;
44222;SDS011;29895;48.804;9.386;2023-08-06T13:06:08;2.60;;;1.02;;
44222;SDS011;29895;48.804;9.386;2023-08-06T13:08:34;2.03;;;1.08;;
44222;SDS011;29895;48.804;9.386;2023-08-06T13:11:00;3.10;;;1.13;;
44222;SDS011;29895;48.804;9.386;2023-08-06T13:13:26;1.20;;;0.80;;
44222;SDS011;29895;48.804;9.386;2023-08-06T13:15:52;3.85;;;1.00;;
44222;SDS011;29895;48.804;9.386;2023-08-06T13:18:17;1.48;;;0.73;;
44222;SDS011;29895;48.804;9.386;2023-08-06T13:20:43;1.38;;;0.65;;
44222;SDS011;29895;48.804;9.386;2023-08-06T13:23:09;1.60;;;0.88;;
44222;SDS011;29895;48.804;9.386;2023-08-06T13:25:34;1.45;;;0.88;;
44222;SDS011;29895;48.804;9.386;2023-08-06T13:28:02;3.15;;;0.93;;
44222;SDS011;29895;48.804;9.386;2023-08-06T13:30:28;1.23;;;0.80;;
44222;SDS011;29895;48.804;9.386;2023-08-06T13:32:54;1.23;;;0.60;;
44222;SDS011;29895;48.804;9.386;2023-08-06T13:35:21;1.65;;;0.80;;
44222;SDS011;29895;48.804;9.386;2023-08-06T13:37:47;1.30;;;0.63;;
44222;SDS011;29895;48.804;9.386;2023-08-06T13:40:13;3.70;;;0.85;;
44222;SDS011;29895;48.804;9.386;2023-08-06T13:42:39;0.95;;;0.80;;
44222;SDS011;29895;48.804;9.386;2023-08-06T13:45:06;3.40;;;0.75;;
44222;SDS011;29895;48.804;9.386;2023-08-06T13:47:32;3.17;;;1.15;;
44222;SDS011;29895;48.804;9.386;2023-08-06T13:49:57;1.85;;;1.00;;
44222;SDS011;29895;48.804;9.386;2023-08-06T13:52:25;1.88;;;0.80;;
44222;SDS011;29895;48.804;9.386;2023-08-06T13:54:51;2.50;;;0.85;;
44222;SDS011;29895;48.804;9.386;2023-08-06T13:57:17;2.20;;;1.65;;
44222;SDS011;29895;48.804;9.386;2023-08-06T13:59:43;4.40;;;1.08;;
44222;SDS011;29895;48.804;9.386;2023-08-06T14:02:09;4.85;;;0.70;;
44222;SDS011;29895;48.804;9.386;2023-08-06T14:04:35;0.80;;;0.60;;
44222;SDS011;29895;48.804;9.386;2023-08-06T14:07:02;1.00;;;0.60;;
44222;SDS011;29895;48.804;9.386;2023-08-06T14:09:28;2.15;;;0.70;;
44222;SDS011;29895;48.804;9.386;2023-08-06T14:11:54;2.17;;;0.63;;
44222;SDS011;29895;48.804;9.386;2023-08-06T14:14:19;2.50;;;0.60;;
44222;SDS011;29895;48.804;9.386;2023-08-06T14:16:50;2.45;;;0.70;;
44222;SDS011;29895;48.804;9.386;2023-08-06T14:19:17;0.95;;;0.55;;
44222;SDS011;29895;48.804;9.386;2023-08-06T14:21:42;1.95;;;0.50;;
44222;SDS011;29895;48.804;9.386;2023-08-06T14:24:08;4.13;;;0.82;;
44222;SDS011;29895;48.804;9.386;2023-08-06T14:26:33;0.70;;;0.63;;
44222;SDS011;29895;48.804;9.386;2023-08-06T14:29:00;1.27;;;0.82;;
44222;SDS011;29895;48.804;9.386;2023-08-06T14:31:26;2.78;;;0.80;;
44222;SDS011;29895;48.804;9.386;2023-08-06T14:33:52;1.13;;;0.60;;
44222;SDS011;29895;48.804;9.386;2023-08-06T14:36:18;1.25;;;0.75;;
44222;SDS011;29895;48.804;9.386;2023-08-06T14:38:44;3.10;;;0.77;;
44222;SDS011;29895;48.804;9.386;2023-08-06T14:41:09;1.38;;;0.75;;
44222;SDS011;29895;48.804;9.386;2023-08-06T14:43:35;1.15;;;0.70;;
44222;SDS011;29895;48.804;9.386;2023-08-06T14:46:01;0.90;;;0.60;;
44222;SDS011;29895;48.804;9.386;2023-08-06T14:48:28;3.67;;;2.15;;
44222;SDS011;29895;48.804;9.386;2023-08-06T14:50:54;1.58;;;0.95;;
44222;SDS011;29895;48.804;9.386;2023-08-06T14:53:20;1.33;;;0.70;;
44222;SDS011;29895;48.804;9.386;2023-08-06T14:55:45;1.20;;;1.05;;
44222;SDS011;29895;48.804;9.386;2023-08-06T14:58:11;3.25;;;1.20;;
44222;SDS011;29895;48.804;9.386;2023-08-06T15:00:37;3.80;;;1.52;;
44222;SDS011;29895;48.804;9.386;2023-08-06T15:03:02;2.25;;;1.00;;
44222;SDS011;29895;48.804;9.386;2023-08-06T15:05:28;7.00;;;1.73;;